createdAt,value
2019-05-18T00:01:35.602Z,17.20
2019-05-18T00:04:05.325Z,19.53
2019-05-18T00:06:35.103Z,21.00
2019-05-18T00:09:06.569Z,22.73
2019-05-18T00:11:36.329Z,23.67
2019-05-18T00:14:06.173Z,25.67
2019-05-18T00:16:35.881Z,25.37
2019-05-18T00:19:05.723Z,23.67
2019-05-18T00:21:35.516Z,24.07
2019-05-18T00:24:05.371Z,20.70
2019-05-18T00:26:35.170Z,20.40
2019-05-18T00:29:05.025Z,20.43
2019-05-18T00:31:34.718Z,18.30
2019-05-18T00:34:04.503Z,16.70
2019-05-18T00:36:34.188Z,17.10
2019-05-18T00:39:05.075Z,16.40
2019-05-18T00:41:34.759Z,17.30
2019-05-18T00:44:04.606Z,16.37
2019-05-18T00:46:34.389Z,16.63
2019-05-18T00:49:04.168Z,15.93
2019-05-18T00:51:33.874Z,16.40
2019-05-18T00:54:03.645Z,16.47
2019-05-18T00:56:33.350Z,15.93
2019-05-18T00:59:03.039Z,15.73
2019-05-18T01:01:32.749Z,16.53
2019-05-18T01:04:02.464Z,15.00
2019-05-18T01:06:32.253Z,16.17
2019-05-18T01:09:02.025Z,16.03
2019-05-18T01:11:31.775Z,15.13
2019-05-18T01:14:01.484Z,14.87
2019-05-18T01:16:31.249Z,16.13
2019-05-18T01:19:00.964Z,15.30
2019-05-18T01:21:30.654Z,15.30
2019-05-18T01:24:00.408Z,14.80
2019-05-18T01:26:30.558Z,17.07
2019-05-18T01:29:06.314Z,15.93
2019-05-18T01:31:36.393Z,17.83
2019-05-18T01:34:06.218Z,18.97
2019-05-18T01:36:36.009Z,17.97
2019-05-18T01:39:07.644Z,17.90
2019-05-18T01:41:37.354Z,18.60
2019-05-18T01:44:07.172Z,19.87
2019-05-18T01:46:36.842Z,20.20
2019-05-18T01:49:06.533Z,19.83
2019-05-18T01:51:36.335Z,20.60
2019-05-18T01:54:06.080Z,20.87
2019-05-18T01:56:35.984Z,20.50
2019-05-18T01:59:05.644Z,20.70
2019-05-18T02:01:36.464Z,22.60
2019-05-18T02:04:06.148Z,23.27
2019-05-18T02:06:36.020Z,21.97
2019-05-18T02:09:08.088Z,22.53
2019-05-18T02:11:37.980Z,21.50
2019-05-18T02:14:07.817Z,22.57
2019-05-18T02:16:37.616Z,22.37
2019-05-18T02:19:07.300Z,19.93
2019-05-18T02:21:37.004Z,22.43
2019-05-18T02:24:06.837Z,21.10
2019-05-18T02:26:36.549Z,22.17
2019-05-18T02:29:06.243Z,19.53
2019-05-18T02:31:35.957Z,19.77
2019-05-18T02:34:05.665Z,19.77
2019-05-18T02:36:35.364Z,20.83
2019-05-18T02:39:07.134Z,20.17
2019-05-18T02:41:36.919Z,19.10
2019-05-18T02:44:06.850Z,20.53
2019-05-18T02:46:36.644Z,21.10
2019-05-18T02:49:06.397Z,20.97
2019-05-18T02:51:36.103Z,20.00
2019-05-18T02:54:05.768Z,21.10
2019-05-18T02:56:35.947Z,22.37
2019-05-18T02:59:05.635Z,22.30
2019-05-18T03:01:35.448Z,22.73
2019-05-18T03:04:05.147Z,22.43
2019-05-18T03:06:34.925Z,23.57
2019-05-18T03:09:06.438Z,24.10
2019-05-18T03:11:36.414Z,23.10
2019-05-18T03:14:06.173Z,25.67
2019-05-18T03:16:35.957Z,23.17
2019-05-18T03:19:08.628Z,23.40
2019-05-18T03:21:37.179Z,23.00
2019-05-18T03:24:06.883Z,24.93
2019-05-18T03:26:36.601Z,22.33
2019-05-18T03:29:06.358Z,23.53
2019-05-18T03:31:36.067Z,24.03
2019-05-18T03:34:06.061Z,21.33
2019-05-18T03:36:35.895Z,22.47
2019-05-18T03:39:06.750Z,22.97
2019-05-18T03:41:36.592Z,25.60
2019-05-18T03:44:06.287Z,24.33
2019-05-18T03:46:36.005Z,24.10
2019-05-18T03:49:05.804Z,26.20
2019-05-18T03:51:35.486Z,23.17
2019-05-18T03:54:05.198Z,27.00
2019-05-18T03:56:35.016Z,25.50
2019-05-18T03:59:04.877Z,26.37
2019-05-18T04:01:35.651Z,27.47
2019-05-18T04:04:05.412Z,27.73
2019-05-18T04:06:35.127Z,27.80
2019-05-18T04:09:06.371Z,26.10
2019-05-18T04:11:36.151Z,25.83
2019-05-18T04:14:08.326Z,27.30
2019-05-18T04:16:37.416Z,27.47
2019-05-18T04:19:07.091Z,26.57
2019-05-18T04:21:36.804Z,28.67
2019-05-18T04:24:06.591Z,28.07
2019-05-18T04:26:36.551Z,27.30
2019-05-18T04:29:06.410Z,26.47
2019-05-18T04:31:36.112Z,25.83
2019-05-18T04:34:05.943Z,25.50
2019-05-18T04:36:35.649Z,24.63
2019-05-18T04:39:06.896Z,23.43
2019-05-18T04:41:36.597Z,23.40
2019-05-18T04:44:06.434Z,24.20
2019-05-18T04:46:36.219Z,22.67
2019-05-18T04:49:05.996Z,21.67
2019-05-18T04:51:35.708Z,22.30
2019-05-18T04:54:05.456Z,21.87
2019-05-18T04:56:35.191Z,21.60
2019-05-18T04:59:05.032Z,20.63
2019-05-18T05:01:34.867Z,19.60
2019-05-18T05:04:04.697Z,22.10
2019-05-18T05:06:34.573Z,21.60
2019-05-18T05:09:06.053Z,21.93
2019-05-18T05:11:35.784Z,21.17
2019-05-18T05:14:05.625Z,19.23
2019-05-18T05:16:35.360Z,20.63
2019-05-18T05:19:08.517Z,19.37
2019-05-18T05:21:36.618Z,19.50
2019-05-18T05:24:06.366Z,20.93
2019-05-18T05:26:39.291Z,19.97
2019-05-18T05:29:07.488Z,19.73
2019-05-18T05:31:37.228Z,20.00
2019-05-18T05:34:06.927Z,20.53
2019-05-18T05:36:36.636Z,19.93
2019-05-18T05:39:07.408Z,19.40
2019-05-18T05:41:37.094Z,18.67
2019-05-18T05:44:06.816Z,20.23
2019-05-18T05:46:37.469Z,18.93
2019-05-18T05:49:07.392Z,19.97
2019-05-18T05:51:37.098Z,18.73
2019-05-18T05:54:06.816Z,18.73
2019-05-18T05:56:36.593Z,17.87
2019-05-18T05:59:06.399Z,17.57
2019-05-18T06:01:36.167Z,18.60
2019-05-18T06:04:05.875Z,17.60
2019-05-18T06:06:35.639Z,17.60
2019-05-18T06:09:07.094Z,17.77
2019-05-18T06:11:36.775Z,17.40
2019-05-18T06:14:06.500Z,17.83
2019-05-18T06:16:36.180Z,17.67
2019-05-18T06:19:05.874Z,17.97
2019-05-18T06:21:35.557Z,15.97
2019-05-18T06:24:05.472Z,17.13
2019-05-18T06:26:35.180Z,17.50
2019-05-18T06:29:05.147Z,16.97
2019-05-18T06:31:34.857Z,16.93
2019-05-18T06:34:04.643Z,17.37
2019-05-18T06:36:34.391Z,17.30
2019-05-18T06:39:05.751Z,18.30
2019-05-18T06:41:35.520Z,17.53
2019-05-18T06:44:05.742Z,18.53
2019-05-18T06:46:35.430Z,17.77
2019-05-18T06:49:05.215Z,18.13
2019-05-18T06:51:34.898Z,16.70
2019-05-18T06:54:04.675Z,16.80
2019-05-18T06:56:34.783Z,16.77
2019-05-18T06:59:04.480Z,15.70
2019-05-18T07:01:35.286Z,16.53
2019-05-18T07:04:05.135Z,16.77
2019-05-18T07:06:34.836Z,16.00
2019-05-18T07:09:13.121Z,15.40
2019-05-18T07:11:38.504Z,14.70
2019-05-18T07:14:08.374Z,16.33
2019-05-18T07:16:38.155Z,15.57
2019-05-18T07:19:07.854Z,16.00
2019-05-18T07:21:37.558Z,15.03
2019-05-18T07:24:07.267Z,16.13
2019-05-18T07:26:37.045Z,16.77
2019-05-18T07:29:06.821Z,16.20
2019-05-18T07:31:36.584Z,15.97
2019-05-18T07:34:06.417Z,15.70
2019-05-18T07:36:36.214Z,16.17
2019-05-18T07:39:07.064Z,16.47
2019-05-18T07:41:46.203Z,16.37
2019-05-18T07:44:08.335Z,16.07
2019-05-18T07:46:38.077Z,15.77
2019-05-18T07:49:07.944Z,16.93
2019-05-18T07:51:37.774Z,16.30
2019-05-18T07:54:07.589Z,16.67
2019-05-18T07:56:37.328Z,15.83
2019-05-18T07:59:07.086Z,15.53
2019-05-18T08:01:42.528Z,15.47
2019-05-18T08:04:12.270Z,15.10
2019-05-18T08:06:42.085Z,15.80
2019-05-18T08:09:11.903Z,15.77
2019-05-18T08:11:41.744Z,15.33
2019-05-18T08:14:11.644Z,16.17
2019-05-18T08:16:41.353Z,15.33
2019-05-18T08:19:11.190Z,15.83
2019-05-18T08:21:52.722Z,14.97
2019-05-18T08:24:12.554Z,15.80
2019-05-18T08:26:42.331Z,15.00
2019-05-18T08:29:12.181Z,16.63
2019-05-18T08:31:42.016Z,16.90
2019-05-18T08:34:11.755Z,15.97
2019-05-18T08:36:41.520Z,17.37
2019-05-18T08:39:11.310Z,16.57
2019-05-18T08:41:41.101Z,18.13
2019-05-18T08:44:11.096Z,16.93
2019-05-18T08:46:40.810Z,16.77
2019-05-18T08:49:10.564Z,18.03
2019-05-18T08:51:40.280Z,17.93
2019-05-18T08:54:10.112Z,17.40
2019-05-18T08:56:40.109Z,17.33
2019-05-18T08:59:09.950Z,16.97
2019-05-18T09:01:39.674Z,18.73
2019-05-18T09:04:09.576Z,17.20
2019-05-18T09:06:39.494Z,18.30
2019-05-18T09:09:09.228Z,17.90
2019-05-18T09:11:39.249Z,16.73
2019-05-18T09:14:09.392Z,18.50
2019-05-18T09:16:39.357Z,19.07
2019-05-18T09:19:09.509Z,19.60
2019-05-18T09:21:39.477Z,18.63
2019-05-18T09:24:09.242Z,17.60
2019-05-18T09:26:38.984Z,19.20
2019-05-18T09:29:08.912Z,18.30
2019-05-18T09:31:38.668Z,18.83
2019-05-18T09:34:08.684Z,18.20
2019-05-18T09:36:38.431Z,18.37
2019-05-18T09:39:08.320Z,18.10
2019-05-18T09:41:38.241Z,17.60
2019-05-18T09:44:08.123Z,20.90
2019-05-18T09:46:37.987Z,16.53
2019-05-18T09:49:07.889Z,18.50
2019-05-18T09:51:37.858Z,19.97
2019-05-18T09:54:07.643Z,19.03
2019-05-18T09:56:37.490Z,18.70
2019-05-18T09:59:07.406Z,20.67
2019-05-18T10:01:37.156Z,20.30
2019-05-18T10:04:07.047Z,20.80
2019-05-18T10:06:36.810Z,19.33
2019-05-18T10:09:08.648Z,19.10
2019-05-18T10:11:38.869Z,19.73
2019-05-18T10:14:08.726Z,18.80
2019-05-18T10:16:38.439Z,18.07
2019-05-18T10:19:08.153Z,17.80
2019-05-18T10:21:37.912Z,18.43
2019-05-18T10:24:07.625Z,18.63
2019-05-18T10:26:37.339Z,18.70
2019-05-18T10:29:07.091Z,18.80
2019-05-18T10:31:36.930Z,17.53
2019-05-18T10:34:06.691Z,17.43
2019-05-18T10:36:36.426Z,18.37
2019-05-18T10:39:07.546Z,16.47
2019-05-18T10:41:37.252Z,18.10
2019-05-18T10:44:06.942Z,17.50
2019-05-18T10:46:36.740Z,17.10
2019-05-18T10:49:06.436Z,16.17
2019-05-18T10:51:36.196Z,15.90
2019-05-18T10:54:05.982Z,16.63
2019-05-18T10:56:40.214Z,16.77
2019-05-18T10:59:10.023Z,17.07
2019-05-18T11:01:49.517Z,15.87
2019-05-18T11:04:19.226Z,14.80
2019-05-18T11:06:49.070Z,14.90
2019-05-18T11:09:18.835Z,14.70
2019-05-18T11:11:48.758Z,14.33
2019-05-18T11:14:18.997Z,15.57
2019-05-18T11:16:48.842Z,15.67
2019-05-18T11:19:18.519Z,13.83
2019-05-18T11:21:48.299Z,14.53
2019-05-18T11:24:18.054Z,14.63
2019-05-18T11:26:47.830Z,14.87
2019-05-18T11:29:17.521Z,15.03
2019-05-18T11:31:47.263Z,14.57
2019-05-18T11:34:16.948Z,13.80
2019-05-18T11:36:46.727Z,13.40
2019-05-18T11:39:16.414Z,13.33
2019-05-18T11:41:46.143Z,15.43
2019-05-18T11:44:15.982Z,13.90
2019-05-18T11:46:45.905Z,13.00
2019-05-18T11:49:16.660Z,12.83
2019-05-18T11:51:46.486Z,13.63
2019-05-18T11:54:16.286Z,14.30
2019-05-18T11:56:46.059Z,14.47
2019-05-18T11:59:16.061Z,13.80
2019-05-18T12:01:45.804Z,14.50
2019-05-18T12:04:15.531Z,14.70
2019-05-18T12:06:45.302Z,16.30
2019-05-18T12:09:15.074Z,15.63
2019-05-18T12:11:44.917Z,16.53
2019-05-18T12:14:14.754Z,17.60
2019-05-18T12:16:44.646Z,16.60
2019-05-18T12:19:14.573Z,16.37
2019-05-18T12:21:44.371Z,18.43
2019-05-18T12:24:15.908Z,17.90
2019-05-18T12:26:45.719Z,18.70
2019-05-18T12:29:15.507Z,19.70
2019-05-18T12:31:45.319Z,18.27
2019-05-18T12:34:15.087Z,18.10
2019-05-18T12:36:44.858Z,19.73
2019-05-18T12:39:14.647Z,19.03
2019-05-18T12:41:44.395Z,20.60
2019-05-18T12:44:14.160Z,20.20
2019-05-18T12:46:43.925Z,21.40
2019-05-18T12:49:13.756Z,21.47
2019-05-18T12:51:43.598Z,21.50
2019-05-18T12:54:13.428Z,21.00
2019-05-18T12:56:43.196Z,22.70
2019-05-18T12:59:12.988Z,21.67
2019-05-18T13:01:43.874Z,23.33
2019-05-18T13:04:13.836Z,25.00
2019-05-18T13:06:43.598Z,20.47
2019-05-18T13:09:13.536Z,23.57
2019-05-18T13:11:43.352Z,22.60
2019-05-18T13:14:13.076Z,22.20
2019-05-18T13:16:42.846Z,22.93
2019-05-18T13:19:12.771Z,23.17
2019-05-18T13:21:42.478Z,22.83
2019-05-18T13:24:12.316Z,23.03
2019-05-18T13:26:42.117Z,23.17
2019-05-18T13:29:11.958Z,23.00
2019-05-18T13:31:41.806Z,24.30
2019-05-18T13:34:11.636Z,23.73
2019-05-18T13:36:41.375Z,23.27
2019-05-18T13:39:11.212Z,22.80
2019-05-18T13:41:41.104Z,24.40
2019-05-18T13:44:11.031Z,23.37
2019-05-18T13:46:40.869Z,23.97
2019-05-18T13:49:10.703Z,23.70
2019-05-18T13:51:40.542Z,25.57
2019-05-18T13:54:10.283Z,24.77
2019-05-18T13:56:40.100Z,23.77
2019-05-18T13:59:09.940Z,22.90
2019-05-18T14:01:39.853Z,22.83
2019-05-18T14:04:09.661Z,22.53
2019-05-18T14:06:39.523Z,22.30
2019-05-18T14:09:15.330Z,22.10
2019-05-18T14:11:45.250Z,22.27
2019-05-18T14:14:16.719Z,21.30
2019-05-18T14:16:46.566Z,21.10
2019-05-18T14:19:16.497Z,19.10
2019-05-18T14:21:46.326Z,19.80
2019-05-18T14:24:16.144Z,21.13
2019-05-18T14:26:45.903Z,19.20
2019-05-18T14:29:15.628Z,18.87
2019-05-18T14:31:45.420Z,18.87
2019-05-18T14:34:15.176Z,17.43
2019-05-18T14:36:44.988Z,18.23
2019-05-18T14:39:14.778Z,17.63
2019-05-18T14:41:44.790Z,17.83
2019-05-18T14:44:14.489Z,18.10
2019-05-18T14:46:44.228Z,16.17
2019-05-18T14:49:14.017Z,16.13
2019-05-18T14:51:43.780Z,17.37
2019-05-18T14:54:13.603Z,17.13
2019-05-18T14:56:43.396Z,16.43
2019-05-18T14:59:13.219Z,16.23
2019-05-18T15:02:01.519Z,16.77
2019-05-18T15:04:31.366Z,16.03
2019-05-18T15:07:01.144Z,15.13
2019-05-18T15:09:30.943Z,16.47
2019-05-18T15:12:00.720Z,16.00
2019-05-18T15:14:30.536Z,16.13
2019-05-18T15:17:00.365Z,16.03
2019-05-18T15:19:30.088Z,16.40
2019-05-18T15:22:00.018Z,16.37
2019-05-18T15:24:29.806Z,15.17
2019-05-18T15:26:59.614Z,15.53
2019-05-18T15:29:29.446Z,17.13
2019-05-18T15:31:59.288Z,16.83
2019-05-18T15:34:29.044Z,16.90
2019-05-18T15:36:58.781Z,15.83
2019-05-18T15:39:28.563Z,16.67
2019-05-18T15:41:58.339Z,16.73
2019-05-18T15:44:28.160Z,16.23
2019-05-18T15:46:58.203Z,16.17
2019-05-18T15:49:27.994Z,17.00
2019-05-18T15:51:57.989Z,17.67
2019-05-18T15:54:27.815Z,16.93
2019-05-18T15:56:57.578Z,17.10
2019-05-18T15:59:27.329Z,17.27
2019-05-18T16:01:57.443Z,17.03
2019-05-18T16:04:27.275Z,17.57
2019-05-18T16:06:57.044Z,16.80
2019-05-18T16:09:26.915Z,16.90
2019-05-18T16:11:56.753Z,17.57
2019-05-18T16:14:26.667Z,17.03
2019-05-18T16:16:56.432Z,19.00
2019-05-18T16:19:26.190Z,18.83
2019-05-18T16:21:55.952Z,19.40
2019-05-18T16:24:25.759Z,18.40
2019-05-18T16:26:55.549Z,18.80
2019-05-18T16:29:25.370Z,20.07
2019-05-18T16:31:55.260Z,18.97
2019-05-18T16:34:25.038Z,19.10
2019-05-18T16:36:54.831Z,18.07
2019-05-18T16:39:24.730Z,18.60
2019-05-18T16:41:54.737Z,19.00
2019-05-18T16:44:24.831Z,18.23
2019-05-18T16:46:54.775Z,17.97
2019-05-18T16:49:24.633Z,18.70
2019-05-18T16:51:54.491Z,18.87
2019-05-18T16:54:25.292Z,17.70
2019-05-18T16:56:55.091Z,16.77
2019-05-18T16:59:24.969Z,18.43
2019-05-18T17:01:54.798Z,17.47
2019-05-18T17:04:24.621Z,17.90
2019-05-18T17:06:54.360Z,17.93
2019-05-18T17:09:24.299Z,18.33
2019-05-18T17:11:54.234Z,17.93
2019-05-18T17:14:24.041Z,18.43
2019-05-18T17:16:53.972Z,18.53
2019-05-18T17:19:23.822Z,17.33
2019-05-18T17:21:53.601Z,18.07
2019-05-18T17:24:23.344Z,19.40
2019-05-18T17:26:53.711Z,20.60
2019-05-18T17:29:23.628Z,19.40
2019-05-18T17:31:53.367Z,18.40
2019-05-18T17:34:23.175Z,18.90
2019-05-18T17:36:53.093Z,19.30
2019-05-18T17:39:22.880Z,19.30
2019-05-18T17:41:52.735Z,19.63
2019-05-18T17:44:22.535Z,19.00
2019-05-18T17:46:52.362Z,19.37
2019-05-18T17:49:26.707Z,18.97
2019-05-18T17:51:53.628Z,20.67
2019-05-18T17:54:23.381Z,19.30
2019-05-18T17:57:07.446Z,19.30
2019-05-18T17:59:24.684Z,18.87
2019-05-18T18:01:54.617Z,19.50
2019-05-18T18:04:24.424Z,19.73
2019-05-18T18:06:54.370Z,20.30
2019-05-18T18:09:24.157Z,20.00
2019-05-18T18:11:53.965Z,21.03
2019-05-18T18:14:23.959Z,19.37
2019-05-18T18:16:53.721Z,20.40
2019-05-18T18:19:23.459Z,20.33
2019-05-18T18:21:53.218Z,20.90
2019-05-18T18:24:23.000Z,20.10
2019-05-18T18:26:52.797Z,19.40
2019-05-18T18:29:22.650Z,18.53
2019-05-18T18:31:52.392Z,18.53
2019-05-18T18:34:22.136Z,18.73
2019-05-18T18:36:51.886Z,18.33
2019-05-18T18:39:21.752Z,18.10
2019-05-18T18:41:51.511Z,18.40
2019-05-18T18:44:21.357Z,18.67
2019-05-18T18:46:51.148Z,18.53
2019-05-18T18:49:20.988Z,17.77
2019-05-18T18:51:50.739Z,20.10
2019-05-18T18:54:20.489Z,20.17
2019-05-18T18:56:50.252Z,19.67
2019-05-18T18:59:20.202Z,21.13
2019-05-18T19:01:50.076Z,21.17
2019-05-18T19:04:19.990Z,20.43
2019-05-18T19:06:49.915Z,20.47
2019-05-18T19:09:19.672Z,20.67
2019-05-18T19:11:49.618Z,20.10
2019-05-18T19:14:19.356Z,20.07
2019-05-18T19:16:49.175Z,20.90
2019-05-18T19:19:19.076Z,22.10
2019-05-18T19:21:48.951Z,20.97
2019-05-18T19:24:18.690Z,23.07
2019-05-18T19:26:48.578Z,21.60
2019-05-18T19:29:18.445Z,22.03
2019-05-18T19:31:48.216Z,22.40
2019-05-18T19:34:18.096Z,22.27
2019-05-18T19:36:47.991Z,22.90
2019-05-18T19:39:17.815Z,22.77
2019-05-18T19:41:47.613Z,23.10
2019-05-18T19:44:17.430Z,23.57
2019-05-18T19:46:47.244Z,24.40
2019-05-18T19:49:17.024Z,24.87
2019-05-18T19:51:46.785Z,24.37
2019-05-18T19:54:16.650Z,23.87
2019-05-18T19:56:46.860Z,24.70
2019-05-18T19:59:17.069Z,24.93
2019-05-18T20:01:46.923Z,26.60
2019-05-18T20:04:16.634Z,25.00
2019-05-18T20:06:46.338Z,25.80
2019-05-18T20:09:16.059Z,26.90
2019-05-18T20:11:45.842Z,25.67
2019-05-18T20:14:15.526Z,25.23
2019-05-18T20:16:45.334Z,24.63
2019-05-18T20:19:15.093Z,26.87
2019-05-18T20:21:44.953Z,24.97
2019-05-18T20:24:14.780Z,24.67
2019-05-18T20:26:44.567Z,25.00
2019-05-18T20:29:14.372Z,26.30
2019-05-18T20:31:44.145Z,26.93
2019-05-18T20:34:13.906Z,29.13
2019-05-18T20:36:43.667Z,25.47
2019-05-18T20:39:13.422Z,26.03
2019-05-18T20:41:43.265Z,29.27
2019-05-18T20:44:13.092Z,27.47
2019-05-18T20:46:42.971Z,27.90
2019-05-18T20:49:12.724Z,27.13
2019-05-18T20:51:42.598Z,28.77
2019-05-18T20:54:12.514Z,26.67
2019-05-18T20:56:42.326Z,28.50
2019-05-18T20:59:12.099Z,28.33
2019-05-18T21:01:41.907Z,26.57
2019-05-18T21:04:11.722Z,25.77
2019-05-18T21:06:45.281Z,27.00
2019-05-18T21:09:13.286Z,27.50
2019-05-18T21:11:43.088Z,26.30
2019-05-18T21:14:12.937Z,27.97
2019-05-18T21:16:42.675Z,27.83
2019-05-18T21:19:12.533Z,28.37
2019-05-18T21:21:42.308Z,27.67
2019-05-18T21:24:12.171Z,30.00
2019-05-18T21:26:42.035Z,27.23
2019-05-18T21:29:11.854Z,30.07
2019-05-18T21:31:41.657Z,30.13
2019-05-18T21:34:11.563Z,30.03
2019-05-18T21:36:41.484Z,30.80
2019-05-18T21:39:11.245Z,31.30
2019-05-18T21:41:41.074Z,33.20
2019-05-18T21:44:11.079Z,31.73
2019-05-18T21:46:40.995Z,30.70
2019-05-18T21:49:10.903Z,32.77
2019-05-18T21:51:40.750Z,30.43
2019-05-18T21:54:10.595Z,30.70
2019-05-18T21:56:40.414Z,31.10
2019-05-18T21:59:12.105Z,29.67
2019-05-18T22:01:42.490Z,31.23
2019-05-18T22:04:12.506Z,31.43
2019-05-18T22:06:42.353Z,31.37
2019-05-18T22:09:12.266Z,30.00
2019-05-18T22:11:43.002Z,32.77
2019-05-18T22:14:12.899Z,30.53
2019-05-18T22:16:42.666Z,28.83
2019-05-18T22:19:12.596Z,28.73
2019-05-18T22:21:42.401Z,29.30
2019-05-18T22:24:12.273Z,29.27
2019-05-18T22:26:42.109Z,29.10
2019-05-18T22:29:11.848Z,28.40
2019-05-18T22:31:41.786Z,28.13
2019-05-18T22:34:11.719Z,26.47
2019-05-18T22:36:41.628Z,25.50
2019-05-18T22:39:11.391Z,27.03
2019-05-18T22:41:41.110Z,25.83
2019-05-18T22:44:11.097Z,24.43
2019-05-18T22:46:40.912Z,24.73
2019-05-18T22:49:10.817Z,22.33
2019-05-18T22:51:40.597Z,21.70
2019-05-18T22:54:10.423Z,20.40
2019-05-18T22:56:40.220Z,21.57
2019-05-18T22:59:09.963Z,23.60
2019-05-18T23:01:39.794Z,23.00
2019-05-18T23:04:09.736Z,22.10
2019-05-18T23:06:39.513Z,22.13
2019-05-18T23:09:09.419Z,23.57
2019-05-18T23:11:39.198Z,23.30
2019-05-18T23:14:09.227Z,25.27
2019-05-18T23:16:39.095Z,24.20
2019-05-18T23:19:09.052Z,24.17
2019-05-18T23:21:39.172Z,22.20
2019-05-18T23:24:09.015Z,21.50
2019-05-18T23:26:38.804Z,21.60
2019-05-18T23:29:08.646Z,21.83
2019-05-18T23:31:38.481Z,20.57
2019-05-18T23:34:08.215Z,19.40
2019-05-18T23:36:38.060Z,18.20
2019-05-18T23:39:07.961Z,18.03
2019-05-18T23:41:37.749Z,18.63
2019-05-18T23:44:07.692Z,18.27
2019-05-18T23:46:37.670Z,19.07
2019-05-18T23:49:10.746Z,19.10
2019-05-18T23:51:38.857Z,19.07
2019-05-18T23:54:14.282Z,18.37
2019-05-18T23:56:44.043Z,18.63
2019-05-18T23:59:13.884Z,17.60
